| Station | Date | Time | Temp (°F) | RH (%) | Dew Pt (°F) | Wind Spd (mph) | Wind Dir (°) | Wind Gust (mph) | Latest Rain (In) | Daily Rain (In) | Daily Max Temp (°F) | Daily Min Temp (°F) |
|---|---|---|---|---|---|---|---|---|---|---|---|---|
| Dollarhide 17B Remote | 5/5/26 | 1815 | 66.7 12.4 | 67 27 | 55.6 2.7 | - | - | - | - | - | 73.1 4.9 | 52.1 7.9 |
| Dollarhide 18A Remote | 5/5/26 | 1815 | 63.9 10.3 | 72 22 | 54.8 2.8 | - | - | - | - | - | 69.6 5.4 | 51.2 9.2 |
| Dollarhide 1AS Remote | 5/5/26 | 1815 | 66.5 12.1 | 68 24 | 55.7 3.5 | 4.4 3.8 | SW | 224 | 10.6 8.4 | - | - | 71.9 4.9 | 51.9 7.3 |
| Angwin | 5/5/26 | 1815 | 53.8 7.2 | 88 9 | 50.5 4.6 | 2.0 0.0 | SSE | 149 | 7.0 0.0 | 0.00 | 0.01 | 58.2 0.4 | 45.5 0.9 |
| Lower Angwin (Pioneer) | 5/5/26 | 1815 | 56.1 7.0 | - | - | 4.8 2.3 | SW | 236 | 10.7 4.4 | - | - | 61.4 1.6 | 47.2 3.1 |
| Lower Chiles Valley (Brown) | 5/5/26 | 1815 | 59.8 7.5 | 76 13 | 52.1 3.0 | 3.2 1.2 | ESE | 116 | 9.9 1.5 | 0.00 | 0.02 | 66.5 4.1 | 50.8 7.3 |
| Deer Park | 5/5/26 | 1815 | 60.7 7.5 | 73 20 | 52.1 0.9 | 3.5 0.4 | SW | 216 | 7.4 1.5 | 0.00 | 0.01 | 67.5 2.5 | 50.9 4.3 |
| Moss Creek Vineyard/Reservior | 5/5/26 | 1745 | 61.9 7.9 | 73 15 | 53.1 2.6 | - | - | - | 0.00 | 0.01 | 64.9 0.4 | 50.8 7.6 |
| Montesol | 5/5/26 | 1815 | 56.4 7.5 | - | - | - | - | - | 0.00 | 0.06 | 61.0 0.4 | 47.6 6.2 |
| Dollarhide Base | 5/5/26 | 1815 | 66.0 12.0 | 70 23 | 55.9 3.8 | 7.4 4.3 | SSW | 205 | 13.7 8.5 | 0.00 | 0.02 | 73.5 5.6 | 51.9 4.3 |
| Pope Valley (Weeks Lake) | 5/5/26 | 1815 | 64.2 10.7 | 65 24 | 52.3 2.0 | 2.9 0.7 | SW | 233 | 5.7 0.9 | 0.00 | 0.02 | 70.4 2.7 | 51.0 9.7 |
| Max | 66.7 | 88 | 55.9 | 7.4 | - | 13.7 | 0.00 | 0.06 | 73.5 | 52.1 | ||
| Avg | 61.5 | 73 | 53.6 | 4.0 | - | 9.3 | 0.00 | - | - | - | ||
| Min | 53.8 | 65 | 50.5 | 2.0 | - | 5.7 | 0.00 | 0.01 | 58.2 | 45.5 |
| Station | Date | Time | Temp (°F) | RH (%) | Dew Pt (°F) | Wind Spd (mph) | Wind Dir (°) | Wind Gust (mph) | Latest Rain (In) | Daily Rain (In) | Daily Max Temp (°F) | Daily Min Temp (°F) |
|---|---|---|---|---|---|---|---|---|---|---|---|---|
| Calistoga-North | 5/5/26 | 1815 | 61.3 6.7 | 74 22 | 53.1 0.5 | - | - | - | 0.00 | 0.02 | 66.8 3.4 | 51.9 3.7 |
| Stags Leap Dist (Chimney Rock) | 5/5/26 | 1815 | 63.2 8.3 | 73 15 | 54.4 3.1 | 4.4 0.8 | SSE | 148 | 9.3 3.1 | 0.00 | 0.01 | 66.8 1.6 | 52.9 10.1 |
| Diamond Mtn (McEachran) | 5/5/26 | 1815 | 59.9 6.3 | 73 20 | 51.3 0.5 | - | - | - | - | - | 63.5 1.1 | 51.1 3.7 |
| Diamond Mtn (Schramsberg) | 5/5/26 | 1815 | 58.3 6.1 | 76 24 | 50.9 1.3 | - | - | - | 0.00 | 0.01 | 65.1 1.0 | 49.8 2.4 |
| Stags Leap Dist (Silverado Vineyards) | 5/5/26 | 1815 | 62.8 8.9 | 67 16 | 51.7 2.9 | 0.6 1.7 | N | 2 | 2.1 1.9 | 0.00 | 0.02 | 67.4 2.4 | 51.9 8.3 |
| Oak Knoll-East (Ranch 53) | 5/5/26 | 1815 | 62.6 7.5 | 67 17 | 51.5 1.2 | 5.1 3.0 | S | 188 | 8.9 5.4 | 0.00 | 0.02 | 67.9 2.4 | 52.5 8.7 |
| Rutherford-North (Mee Ln) | 5/5/26 | 1815 | 63.4 8.9 | 68 18 | 52.8 2.2 | 2.8 1.8 | WSW | 243 | 6.4 4.2 | 0.00 | 0.02 | 71.1 2.3 | 47.7 6.4 |
| Frisinger Napa-NW | 5/5/26 | 1815 | 62.1 7.5 | 72 17 | 53.1 1.6 | 7.0 5.6 | SW | 218 | 10.9 7.7 | 0.00 | 0.02 | 66.7 0.8 | 52.8 8.0 |
| Napa-North (Ranch 29) | 5/5/26 | 1815 | 62.6 7.6 | 69 19 | 52.4 0.9 | 3.5 2.9 | SSW | 197 | 7.5 4.2 | 0.00 | 0.02 | 66.0 1.3 | 52.1 7.7 |
| St. Helena (NVV Office) | 5/5/26 | 1815 | 63.4 7.5 | - | - | 2.2 1.5 | W | 280 | 6.1 2.6 | 0.00 | 0.02 | 70.8 0.7 | 52.9 6.8 |
| Crossroads Ranch | 5/5/26 | 1815 | 63.0 7.9 | 72 12 | 53.8 3.3 | 3.2 2.1 | SW | 229 | 7.5 4.5 | 0.00 | 0.01 | 68.4 1.8 | 52.7 9.1 |
| Oakville | 5/5/26 | 1815 | 62.7 7.3 | 68 17 | 52.1 1.1 | 5.2 4.3 | SW | 231 | 9.1 5.5 | 0.00 | 0.16 | 68.1 1.2 | 52.4 8.8 |
| OV561-East | 5/5/26 | 1815 | 62.9 8.7 | - | - | - | - | - | - | - | 68.8 2.5 | 52.7 8.5 |
| OV518-West | 5/5/26 | 1815 | 62.6 7.3 | - | - | - | - | - | - | - | 67.9 1.3 | 52.5 8.9 |
| Napa-NW (Ranch 54) | 5/5/26 | 1815 | 63.1 7.9 | 68 18 | 52.3 1.3 | 2.0 1.2 | S | 188 | 5.5 2.6 | 0.00 | 0.01 | 69.5 0.5 | 52.9 7.6 |
| Calistoga (Ranch 78) | 5/5/26 | 1815 | 62.0 7.0 | 67 24 | 51.0 1.3 | 3.8 0.5 | W | 281 | 9.7 3.7 | 0.00 | 0.02 | 67.2 1.3 | 52.6 6.1 |
| Yountville-SE (Ranch 85) | 5/5/26 | 1815 | 63.1 8.0 | 71 16 | 53.5 2.1 | 3.5 1.5 | S | 178 | 8.0 4.0 | 0.00 | 0.01 | 67.4 1.9 | 52.6 8.8 |
| Yountville-South (Ranch 87) | 5/5/26 | 1815 | 63.6 8.6 | 70 19 | 53.6 1.7 | 1.7 1.4 | SW | 220 | 5.0 3.2 | 0.00 | 0.02 | 68.0 2.5 | 52.5 8.9 |
| Rutherford Hill Estate | 5/5/26 | 1815 | 62.5 8.6 | 71 21 | 53.0 1.4 | 1.3 1.2 | WNW | 282 | 4.2 2.6 | 0.00 | 0.01 | 70.8 4.0 | 51.2 4.4 |
| Rutherford (STS) | 5/5/26 | 1815 | 63.0 8.4 | 75 15 | 55.1 3.3 | 4.1 2.9 | W | 259 | 7.8 5.3 | 0.00 | 0.11 | 70.9 2.9 | 52.3 9.4 |
| Borreo (Soda Canyon) | 5/5/26 | 1815 | 59.9 7.7 | 71 11 | 50.7 3.5 | 2.9 0.6 | SSE | 154 | 7.8 2.1 | 0.00 | 0.02 | 64.4 2.6 | 50.3 8.7 |
| Oakville-NE (Ranch 88) | 5/5/26 | 1815 | 63.8 8.5 | 66 16 | 52.3 2.5 | 2.0 2.0 | WSW | 240 | 5.6 5.6 | 0.00 | 0.02 | 70.4 1.7 | 52.2 9.6 |
| Soda Canyon | 5/5/26 | 1815 | 62.6 8.1 | 73 10 | 53.9 4.5 | 5.3 2.5 | S | 170 | 9.7 4.8 | 0.00 | 0.01 | 65.7 1.9 | 52.5 12.1 |
| Silver Oak OV | 5/5/26 | 1815 | 62.9 7.4 | 70 16 | 52.8 1.6 | 4.0 3.8 | SW | 218 | 6.9 5.7 | 0.00 | 0.02 | 68.7 1.6 | 52.6 9.8 |
| Tiara Fria (East St. Helena) | 5/5/26 | 1815 | 63.2 7.5 | 68 20 | 52.6 0.3 | 4.6 4.3 | W | 264 | 8.9 6.6 | 0.00 | 0.01 | 70.1 3.2 | 52.9 7.1 |
| To Kalon Remote (TKKE) | 5/5/26 | 1815 | 63.2 7.6 | - | - | - | - | - | - | - | 69.2 0.5 | 52.9 9.9 |
| To Kalon | 5/5/26 | 1815 | 62.2 7.7 | 71 13 | 52.6 2.9 | 3.9 2.7 | WSW | 251 | 9.5 6.8 | 0.00 | 0.02 | 69.0 2.2 | 52.4 8.8 |
| To Kalon Remote (TKN5) | 5/5/26 | 1815 | 62.6 7.2 | - | - | - | - | - | - | - | 69.6 2.4 | 52.8 9.3 |
| St. Helena-North | 5/5/26 | 1815 | 63.3 8.3 | 63 28 | 50.4 1.9 | 3.7 3.3 | WNW | 301 | 10.1 7.9 | 0.00 | 0.01 | 70.6 3.4 | 52.6 6.2 |
| Twomey Calistoga | 5/5/26 | 1815 | 62.1 7.2 | 69 23 | 51.9 0.8 | 3.4 2.1 | W | 268 | 7.0 3.6 | 0.00 | 0.02 | 67.6 2.1 | 52.3 7.0 |
| Wappo Hill Floor | 5/5/26 | 1815 | 63.0 8.8 | 71 13 | 53.3 3.8 | 4.6 1.2 | SE | 146 | 8.9 2.7 | 0.00 | 0.03 | 67.8 1.5 | 50.2 8.0 |
| Yountville (Ranch 67) | 5/5/26 | 1815 | 62.7 8.6 | 67 11 | 51.5 4.2 | 1.7 1.1 | SE | 128 | 5.2 1.5 | 0.00 | 0.03 | 66.9 1.7 | 51.7 8.5 |
| Max | 63.8 | 76 | 55.1 | 7.0 | - | 10.9 | 0.00 | 0.16 | 71.1 | 52.9 | ||
| Avg | 62.5 | 70 | 52.5 | 3.5 | - | 7.5 | 0.00 | - | - | - | ||
| Min | 58.3 | 63 | 50.4 | 0.6 | - | 2.1 | 0.00 | 0.01 | 63.5 | 47.7 |
| Station | Date | Time | Temp (°F) | RH (%) | Dew Pt (°F) | Wind Spd (mph) | Wind Dir (°) | Wind Gust (mph) | Latest Rain (In) | Daily Rain (In) | Daily Max Temp (°F) | Daily Min Temp (°F) |
|---|---|---|---|---|---|---|---|---|---|---|---|---|
| Carneros (Milton Rd) | 5/5/26 | 1815 | 62.8 7.4 | 67 13 | 51.9 2.4 | - | - | - | 0.00 | 0.00 | 67.6 2.3 | 52.7 10.6 |
| Carneros Lower (Ranch 81) | 5/5/26 | 1815 | 62.2 8.1 | 72 15 | 53.0 2.9 | 0.9 1.4 | SW | 228 | 10.4 4.6 | 0.00 | 0.03 | 68.4 0.1 | 52.0 9.4 |
| Carneros Upper (Ranch 81) | 5/5/26 | 1815 | 59.8 6.4 | 71 15 | 50.5 1.2 | 13.3 6.6 | W | 259 | 20.3 10.6 | - | - | 65.2 0.7 | 51.4 4.6 |
| Carneros (Mitsuko) | 5/5/26 | 1815 | 62.4 8.1 | - | - | - | - | - | - | - | 66.9 1.4 | 52.5 12.4 |
| Mount George (Napa East) | 5/5/26 | 1815 | 63.0 7.5 | 75 14 | 55.0 2.5 | 2.8 2.5 | SE | 129 | 9.3 7.7 | 0.00 | 0.03 | 65.6 0.6 | 53.5 9.1 |
| Napa-East (Palmaz 300') | 5/5/26 | 1815 | 61.0 6.0 | 73 14 | 52.5 1.0 | 1.9 1.6 | SSE | 158 | 6.7 4.0 | 0.00 | 0.03 | 66.1 1.8 | 51.8 7.4 |
| Napa-East (Palmaz 1200') | 5/5/26 | 1815 | 56.4 5.5 | 84 24 | 51.8 15.0 | 1.9 0.6 | NW | 318 | 5.9 0.0 | - | - | 59.2 0.8 | 48.9 7.9 |
| Napa-East (Palmaz 1400') | 5/5/26 | 1815 | 55.3 5.5 | 88 12 | 51.9 2.2 | 3.1 1.2 | SSW | 197 | 8.3 0.3 | 0.00 | 0.02 | 60.1 1.0 | 48.0 4.4 |
| Dealy Lane (Ranch 80) | 5/5/26 | 1815 | 62.4 7.7 | 66 16 | 50.7 1.5 | 3.5 1.2 | W | 271 | 10.4 5.0 | 0.00 | 0.03 | 67.0 1.3 | 52.2 8.4 |
| Suscol Mtn (Ranch 93) | 5/5/26 | 1815 | 57.1 5.8 | 79 4 | 50.6 4.4 | 7.2 0.5 | WNW | 290 | 13.1 0.2 | 0.00 | 0.02 | 65.5 5.5 | 49.2 1.9 |
| Carneros (Saintsbury) | 5/5/26 | 1815 | 62.1 7.5 | 68 11 | 51.6 3.1 | 9.0 5.0 | WSW | 248 | 14.6 8.0 | 0.00 | 0.00 | 66.6 1.3 | 48.7 5.6 |
| Sugarloaf West | 5/5/26 | 1815 | 61.8 5.9 | 73 6 | 53.0 3.7 | 4.3 1.8 | SW | 225 | 9.1 3.4 | 0.00 | 0.03 | 65.1 1.3 | 52.8 7.8 |
| Suscol Upper (Ranch 92) | 5/5/26 | 1815 | 58.0 5.9 | 78 3 | 51.2 4.7 | 6.0 4.4 | SW | 226 | 11.0 2.0 | 0.00 | 0.02 | 62.8 1.8 | 49.8 1.7 |
| Stanly (Ranch 45) | 5/5/26 | 1815 | 62.0 6.3 | 70 7 | 52.0 3.5 | 7.5 4.3 | WSW | 254 | 11.9 5.5 | 0.00 | 0.00 | 67.8 2.1 | 49.8 7.0 |
| Suscol Lower (Ranch 35) | 5/5/26 | 1815 | 61.3 6.2 | 70 8 | 51.3 3.0 | 5.5 3.0 | WSW | 248 | 9.9 3.9 | 0.00 | 0.02 | 66.6 2.0 | 52.0 6.9 |
| Napa-South (Toyon Farms) | 5/5/26 | 1815 | 62.1 7.3 | 74 13 | 53.8 2.7 | 7.0 6.8 | SW | 233 | 11.5 8.2 | 0.00 | 0.02 | 66.5 1.4 | 52.2 5.6 |
| Toyon Remote 1 | 5/5/26 | 1815 | 63.3 9.1 | - | - | - | - | - | - | - | 70.3 0.7 | 51.9 12.5 |
| Toyon Remote 2 | 5/5/26 | 1815 | 62.8 7.0 | - | - | - | - | - | - | - | 67.5 0.9 | 52.6 11.4 |
| Toyon Remote 3 | 5/5/26 | 1815 | 63.9 8.6 | - | - | - | - | - | - | - | 69.4 0.8 | 52.3 9.6 |
| Napa-West Lower (Truchard) | 5/5/26 | 1815 | 63.7 9.2 | 65 17 | 51.9 2.7 | - | - | - | - | - | 70.0 1.1 | 50.8 10.1 |
| Napa-West Upper (Truchard) | 5/5/26 | 1815 | 61.4 7.1 | 70 17 | 51.6 1.2 | 7.9 6.6 | SW | 235 | 13.6 9.7 | 0.00 | 0.03 | 66.7 1.8 | 50.1 4.5 |
| Mt. Veeder | 5/5/26 | 1815 | 58.4 9.0 | 78 14 | 51.5 4.2 | 1.1 0.5 | N | 8 | 3.5 0.9 | 0.00 | 0.03 | 63.6 2.2 | 48.0 2.0 |
| Wooden Valley | 5/5/26 | 1815 | 59.8 6.9 | 73 10 | 51.3 3.2 | 3.6 0.7 | SSW | 208 | 7.7 2.6 | 0.00 | 0.02 | 63.0 2.4 | 50.4 7.1 |
| Max | 63.9 | 88 | 55.0 | 13.3 | - | 20.3 | 0.00 | 0.03 | 70.3 | 53.5 | ||
| Avg | 61.0 | 73 | 52.0 | 5.1 | - | 10.4 | 0.00 | - | - | - | ||
| Min | 55.3 | 65 | 50.5 | 0.9 | - | 3.5 | 0.00 | 0.00 | 59.2 | 48.0 |